createdAt,value
2018-06-16T00:00:05.925Z,0
2018-06-16T00:01:08.223Z,0
2018-06-16T00:02:10.224Z,0
2018-06-16T00:03:12.508Z,0
2018-06-16T00:04:14.501Z,0
2018-06-16T00:05:16.798Z,0
2018-06-16T00:06:18.799Z,0
2018-06-16T00:07:21.073Z,0
2018-06-16T00:08:23.455Z,0
2018-06-16T00:09:26.142Z,0
2018-06-16T00:10:28.143Z,0
2018-06-16T00:11:30.146Z,0
2018-06-16T00:12:32.425Z,0
2018-06-16T00:13:34.996Z,0
2018-06-16T00:14:37.270Z,0
2018-06-16T00:15:39.268Z,0
2018-06-16T00:16:41.560Z,0
2018-06-16T00:17:43.557Z,0
2018-06-16T00:18:45.538Z,0
2018-06-16T00:19:47.541Z,0
2018-06-16T00:20:49.840Z,0
2018-06-16T00:21:51.837Z,0
2018-06-16T00:22:53.837Z,0
2018-06-16T00:23:55.833Z,0
2018-06-16T00:24:57.836Z,0
2018-06-16T00:25:59.828Z,0
2018-06-16T00:27:01.827Z,0
2018-06-16T00:28:03.837Z,0
2018-06-16T00:29:06.114Z,0
2018-06-16T00:30:08.111Z,0
2018-06-16T00:31:10.105Z,0
2018-06-16T00:32:12.103Z,0
2018-06-16T00:33:14.095Z,0
2018-06-16T00:34:16.095Z,0
2018-06-16T00:35:18.101Z,0
2018-06-16T00:36:20.100Z,0
2018-06-16T00:37:22.099Z,0
2018-06-16T00:38:24.381Z,0
2018-06-16T00:39:26.384Z,0
2018-06-16T00:40:28.373Z,0
2018-06-16T00:41:30.372Z,0
2018-06-16T00:42:32.382Z,0
2018-06-16T00:43:34.376Z,0
2018-06-16T00:44:36.377Z,0
2018-06-16T00:45:38.374Z,0
2018-06-16T00:46:40.372Z,0
2018-06-16T00:47:42.367Z,0
2018-06-16T00:48:44.652Z,0
2018-06-16T00:49:46.667Z,0
2018-06-16T00:50:48.666Z,0
2018-06-16T00:51:50.658Z,0
2018-06-16T00:52:53.458Z,0
2018-06-16T00:53:55.388Z,0
2018-06-16T00:54:57.386Z,0
2018-06-16T00:55:59.661Z,0
2018-06-16T00:57:01.660Z,0
2018-06-16T00:58:03.665Z,0
2018-06-16T00:59:05.653Z,0
2018-06-16T01:00:07.649Z,0
2018-06-16T01:01:09.942Z,0
2018-06-16T01:02:11.940Z,0
2018-06-16T01:03:13.941Z,0
2018-06-16T01:04:15.947Z,0
2018-06-16T01:05:17.949Z,0
2018-06-16T01:06:19.950Z,0
2018-06-16T01:07:21.953Z,0
2018-06-16T01:08:23.953Z,0
2018-06-16T01:09:26.237Z,0
2018-06-16T01:10:28.513Z,0
2018-06-16T01:11:30.508Z,0
2018-06-16T01:12:32.513Z,0
2018-06-16T01:13:34.520Z,0
2018-06-16T01:14:36.514Z,0
2018-06-16T01:15:38.812Z,0
2018-06-16T01:16:40.802Z,0
2018-06-16T01:17:42.800Z,0
2018-06-16T01:18:45.183Z,0
2018-06-16T01:19:47.469Z,0
2018-06-16T01:20:49.742Z,0
2018-06-16T01:21:51.746Z,0
2018-06-16T01:22:54.114Z,0
2018-06-16T01:23:56.120Z,0
2018-06-16T01:24:58.125Z,0
2018-06-16T01:26:00.123Z,0
2018-06-16T01:27:02.128Z,0
2018-06-16T01:28:04.122Z,0
2018-06-16T01:29:06.121Z,0
2018-06-16T01:30:08.132Z,0
2018-06-16T01:31:10.119Z,0
2018-06-16T01:32:12.124Z,0
2018-06-16T01:33:14.123Z,0
2018-06-16T01:34:16.122Z,0
2018-06-16T01:35:18.116Z,0
2018-06-16T01:36:20.113Z,0
2018-06-16T01:37:22.385Z,0
2018-06-16T01:38:24.385Z,0
2018-06-16T01:39:26.381Z,0
2018-06-16T01:40:28.958Z,0
2018-06-16T01:41:31.336Z,0
2018-06-16T01:42:33.340Z,0
2018-06-16T01:43:35.347Z,0
2018-06-16T01:44:37.349Z,0
2018-06-16T01:45:39.347Z,0
2018-06-16T01:46:41.342Z,0
2018-06-16T01:47:43.342Z,0
2018-06-16T01:48:45.351Z,0
2018-06-16T01:49:47.631Z,0
2018-06-16T01:50:49.626Z,0
2018-06-16T01:51:51.627Z,0
2018-06-16T01:52:53.919Z,0
2018-06-16T01:53:55.909Z,0
2018-06-16T01:54:58.293Z,0
2018-06-16T01:56:00.308Z,0
2018-06-16T01:57:02.585Z,0
2018-06-16T01:58:04.574Z,0
2018-06-16T01:59:06.575Z,0
2018-06-16T02:00:08.569Z,0
2018-06-16T02:01:10.570Z,0
2018-06-16T02:02:12.865Z,0
2018-06-16T02:03:14.894Z,0
2018-06-16T02:04:17.256Z,0
2018-06-16T02:05:19.241Z,0
2018-06-16T02:06:21.247Z,0
2018-06-16T02:07:23.246Z,0
2018-06-16T02:08:25.238Z,0
2018-06-16T02:09:27.522Z,0
2018-06-16T02:10:29.523Z,0
2018-06-16T02:11:32.100Z,0
2018-06-16T02:12:34.481Z,0
2018-06-16T02:13:36.483Z,0
2018-06-16T02:14:38.769Z,0
2018-06-16T02:15:41.150Z,0
2018-06-16T02:16:43.144Z,0
2018-06-16T02:17:45.147Z,0
2018-06-16T02:18:47.540Z,0
2018-06-16T02:19:49.529Z,0
2018-06-16T02:20:51.528Z,0
2018-06-16T02:21:53.538Z,0
2018-06-16T02:22:55.531Z,0
2018-06-16T02:23:57.519Z,0
2018-06-16T02:24:59.803Z,0
2018-06-16T02:26:01.801Z,0
2018-06-16T02:27:04.078Z,0
2018-06-16T02:28:06.087Z,0
2018-06-16T02:29:08.067Z,0
2018-06-16T02:30:10.064Z,0
2018-06-16T02:31:12.357Z,0
2018-06-16T02:32:14.356Z,0
2018-06-16T02:33:17.027Z,0
2018-06-16T02:34:19.030Z,0
2018-06-16T02:35:21.310Z,0
2018-06-16T02:36:24.263Z,0
2018-06-16T02:37:26.257Z,0
2018-06-16T02:38:28.268Z,0
2018-06-16T02:39:30.269Z,1
2018-06-16T02:40:32.654Z,1
2018-06-16T02:41:34.958Z,1
2018-06-16T02:42:36.957Z,1
2018-06-16T02:43:38.963Z,1
2018-06-16T02:44:41.257Z,1
2018-06-16T02:45:43.257Z,1
2018-06-16T02:46:45.844Z,1
2018-06-16T02:47:47.836Z,1
2018-06-16T02:48:50.985Z,1
2018-06-16T02:49:53.273Z,1
2018-06-16T02:50:55.667Z,2
2018-06-16T02:51:57.667Z,2
2018-06-16T02:52:59.978Z,2
2018-06-16T02:54:01.970Z,2
2018-06-16T02:55:03.984Z,2
2018-06-16T02:56:06.250Z,2
2018-06-16T02:57:08.824Z,2
2018-06-16T02:58:11.100Z,3
2018-06-16T02:59:13.100Z,3
2018-06-16T03:00:15.397Z,3
2018-06-16T03:01:17.394Z,3
2018-06-16T03:02:19.398Z,3
2018-06-16T03:03:21.456Z,3
2018-06-16T03:04:23.377Z,3
2018-06-16T03:05:25.381Z,4
2018-06-16T03:06:27.672Z,4
2018-06-16T03:07:29.963Z,4
2018-06-16T03:08:31.959Z,4
2018-06-16T03:09:33.956Z,4
2018-06-16T03:10:36.616Z,4
2018-06-16T03:11:38.626Z,5
2018-06-16T03:12:41.207Z,5
2018-06-16T03:13:43.877Z,5
2018-06-16T03:14:46.158Z,5
2018-06-16T03:15:48.446Z,5
2018-06-16T03:16:50.827Z,5
2018-06-16T03:17:52.830Z,6
2018-06-16T03:18:54.825Z,6
2018-06-16T03:19:56.826Z,6
2018-06-16T03:20:58.816Z,6
2018-06-16T03:22:01.197Z,6
2018-06-16T03:23:03.199Z,7
2018-06-16T03:24:05.198Z,7
2018-06-16T03:25:07.574Z,7
2018-06-16T03:26:09.577Z,7
2018-06-16T03:27:11.861Z,7
2018-06-16T03:28:14.142Z,8
2018-06-16T03:29:16.519Z,8
2018-06-16T03:30:19.193Z,8
2018-06-16T03:31:21.193Z,8
2018-06-16T03:32:23.191Z,9
2018-06-16T03:33:25.465Z,9
2018-06-16T03:34:27.464Z,9
2018-06-16T03:35:29.453Z,10
2018-06-16T03:36:32.019Z,10
2018-06-16T03:37:34.028Z,10
2018-06-16T03:38:36.031Z,11
2018-06-16T03:39:38.025Z,11
2018-06-16T03:40:40.025Z,11
2018-06-16T03:41:42.021Z,12
2018-06-16T03:42:44.021Z,12
2018-06-16T03:43:46.020Z,12
2018-06-16T03:44:48.020Z,13
2018-06-16T03:45:50.016Z,13
2018-06-16T03:46:52.017Z,14
2018-06-16T03:47:54.015Z,14
2018-06-16T03:48:56.306Z,14
2018-06-16T03:49:58.298Z,15
2018-06-16T03:51:00.687Z,15
2018-06-16T03:52:02.994Z,15
2018-06-16T03:53:05.369Z,16
2018-06-16T03:54:07.367Z,16
2018-06-16T03:55:09.363Z,16
2018-06-16T03:56:12.024Z,16
2018-06-16T03:57:14.030Z,16
2018-06-16T03:58:16.027Z,17
2018-06-16T03:59:18.033Z,17
2018-06-16T04:00:20.031Z,17
2018-06-16T04:01:22.018Z,18
2018-06-16T04:02:24.018Z,18
2018-06-16T04:03:26.015Z,18
2018-06-16T04:04:28.398Z,19
2018-06-16T04:05:30.401Z,19
2018-06-16T04:06:32.403Z,19
2018-06-16T04:07:34.403Z,19
2018-06-16T04:08:36.398Z,20
2018-06-16T04:09:38.395Z,20
2018-06-16T04:10:41.067Z,20
2018-06-16T04:11:43.057Z,20
2018-06-16T04:12:45.049Z,21
2018-06-16T04:13:47.328Z,21
2018-06-16T04:14:49.328Z,21
2018-06-16T04:15:51.328Z,21
2018-06-16T04:16:53.326Z,22
2018-06-16T04:17:55.611Z,22
2018-06-16T04:18:58.278Z,22
2018-06-16T04:20:00.269Z,23
2018-06-16T04:21:02.277Z,23
2018-06-16T04:22:04.274Z,23
2018-06-16T04:23:06.280Z,23
2018-06-16T04:24:08.747Z,24
2018-06-16T04:25:10.745Z,24
2018-06-16T04:26:13.022Z,24
2018-06-16T04:27:15.014Z,25
2018-06-16T04:28:17.290Z,25
2018-06-16T04:29:19.294Z,25
2018-06-16T04:30:21.294Z,26
2018-06-16T04:31:23.293Z,26
2018-06-16T04:32:25.289Z,26
2018-06-16T04:33:27.284Z,26
2018-06-16T04:34:29.271Z,27
2018-06-16T04:35:31.275Z,27
2018-06-16T04:36:33.849Z,28
2018-06-16T04:37:35.839Z,28
2018-06-16T04:38:37.837Z,29
2018-06-16T04:39:39.830Z,29
2018-06-16T04:40:41.832Z,29
2018-06-16T04:41:43.826Z,30
2018-06-16T04:42:45.825Z,31
2018-06-16T04:43:47.829Z,32
2018-06-16T04:44:49.830Z,33
2018-06-16T04:45:51.908Z,34
2018-06-16T04:46:53.846Z,34
2018-06-16T04:47:55.816Z,35
2018-06-16T04:48:57.822Z,36
2018-06-16T04:49:59.810Z,37
2018-06-16T04:51:02.103Z,38
2018-06-16T04:52:04.487Z,39
2018-06-16T04:53:06.485Z,39
2018-06-16T04:54:08.486Z,40
2018-06-16T04:55:10.488Z,41
2018-06-16T04:56:12.760Z,41
2018-06-16T04:57:14.765Z,42
2018-06-16T04:58:16.755Z,42
2018-06-16T04:59:18.748Z,43
2018-06-16T05:00:20.761Z,43
2018-06-16T05:01:23.042Z,43
2018-06-16T05:02:25.311Z,43
2018-06-16T05:03:27.310Z,43
2018-06-16T05:04:29.307Z,44
2018-06-16T05:05:31.971Z,43
2018-06-16T05:06:33.976Z,43
2018-06-16T05:07:35.978Z,43
2018-06-16T05:08:38.015Z,42
2018-06-16T05:09:40.264Z,43
2018-06-16T05:10:42.266Z,41
2018-06-16T05:11:44.265Z,41
2018-06-16T05:12:46.271Z,40
2018-06-16T05:13:48.269Z,40
2018-06-16T05:14:50.264Z,39
2018-06-16T05:15:52.270Z,39
2018-06-16T05:16:54.286Z,39
2018-06-16T05:17:56.646Z,39
2018-06-16T05:18:58.653Z,39
2018-06-16T05:20:00.653Z,39
2018-06-16T05:21:02.655Z,38
2018-06-16T05:22:04.933Z,38
2018-06-16T05:23:06.928Z,38
2018-06-16T05:24:09.239Z,38
2018-06-16T05:25:11.235Z,38
2018-06-16T05:26:13.622Z,38
2018-06-16T05:27:15.618Z,38
2018-06-16T05:28:18.006Z,39
2018-06-16T05:29:20.288Z,40
2018-06-16T05:30:22.285Z,41
2018-06-16T05:31:24.302Z,41
2018-06-16T05:32:26.307Z,42
2018-06-16T05:33:28.304Z,42
2018-06-16T05:34:30.585Z,43
2018-06-16T05:35:32.968Z,44
2018-06-16T05:36:35.248Z,44
2018-06-16T05:37:37.248Z,45
2018-06-16T05:38:39.249Z,45
2018-06-16T05:39:41.249Z,45
2018-06-16T05:40:43.259Z,46
2018-06-16T05:41:45.261Z,46
2018-06-16T05:42:47.257Z,47
2018-06-16T05:43:49.254Z,47
2018-06-16T05:44:51.535Z,48
2018-06-16T05:45:53.538Z,48
2018-06-16T05:46:55.539Z,49
2018-06-16T05:47:57.537Z,49
2018-06-16T05:48:59.545Z,49
2018-06-16T05:50:01.537Z,50
2018-06-16T05:51:03.539Z,50
2018-06-16T05:52:05.548Z,50
2018-06-16T05:53:07.549Z,51
2018-06-16T05:54:09.550Z,51
2018-06-16T05:55:11.551Z,51
2018-06-16T05:56:13.556Z,52
2018-06-16T05:57:15.553Z,53
2018-06-16T05:58:17.552Z,54
2018-06-16T05:59:19.560Z,54
2018-06-16T06:00:21.548Z,55
2018-06-16T06:01:23.546Z,56
2018-06-16T06:02:25.547Z,57
2018-06-16T06:03:27.546Z,57
2018-06-16T06:04:29.555Z,58
2018-06-16T06:05:31.554Z,58
2018-06-16T06:06:33.564Z,59
2018-06-16T06:07:35.567Z,59
2018-06-16T06:08:37.579Z,60
2018-06-16T06:09:39.586Z,60
2018-06-16T06:10:41.590Z,60
2018-06-16T06:11:43.906Z,60
2018-06-16T06:12:45.887Z,62
2018-06-16T06:13:47.883Z,62
2018-06-16T06:14:49.882Z,63
2018-06-16T06:15:52.282Z,64
2018-06-16T06:16:54.278Z,65
2018-06-16T06:17:56.277Z,67
2018-06-16T06:18:58.962Z,68
2018-06-16T06:20:00.971Z,69
2018-06-16T06:21:02.980Z,70
2018-06-16T06:22:04.985Z,71
2018-06-16T06:23:06.971Z,72
2018-06-16T06:24:08.985Z,72
2018-06-16T06:25:11.678Z,72
2018-06-16T06:26:13.676Z,73
2018-06-16T06:27:15.682Z,74
2018-06-16T06:28:18.354Z,74
2018-06-16T06:29:20.640Z,74
2018-06-16T06:30:22.630Z,74
2018-06-16T06:31:25.021Z,73
2018-06-16T06:32:27.034Z,72
2018-06-16T06:33:29.315Z,72
2018-06-16T06:34:31.707Z,71
2018-06-16T06:35:33.997Z,70
2018-06-16T06:36:36.385Z,70
2018-06-16T06:37:38.396Z,69
2018-06-16T06:38:40.400Z,70
2018-06-16T06:39:42.402Z,69
2018-06-16T06:40:44.687Z,68
2018-06-16T06:41:46.689Z,68
2018-06-16T06:42:48.693Z,69
2018-06-16T06:43:50.705Z,70
2018-06-16T06:44:52.701Z,71
2018-06-16T06:45:55.378Z,72
2018-06-16T06:46:57.381Z,74
2018-06-16T06:47:59.387Z,76
2018-06-16T06:49:01.393Z,77
2018-06-16T06:50:03.399Z,77
2018-06-16T06:51:05.409Z,79
2018-06-16T06:52:07.715Z,80
2018-06-16T06:53:09.720Z,82
2018-06-16T06:54:11.729Z,84
2018-06-16T06:55:14.140Z,85
2018-06-16T06:56:16.409Z,86
2018-06-16T06:57:18.411Z,86
2018-06-16T06:58:20.423Z,87
2018-06-16T06:59:22.430Z,86
2018-06-16T07:00:24.729Z,86
2018-06-16T07:01:26.729Z,86
2018-06-16T07:02:29.015Z,86
2018-06-16T07:03:31.015Z,87
2018-06-16T07:04:33.023Z,87
2018-06-16T07:05:35.038Z,89
2018-06-16T07:06:37.044Z,91
2018-06-16T07:07:39.053Z,93
2018-06-16T07:08:41.059Z,93
2018-06-16T07:09:43.064Z,95
2018-06-16T07:10:45.166Z,97
2018-06-16T07:11:47.188Z,97
2018-06-16T07:12:49.583Z,97
2018-06-16T07:13:51.978Z,98
2018-06-16T07:14:53.991Z,99
2018-06-16T07:15:55.998Z,98
2018-06-16T07:16:58.005Z,97
2018-06-16T07:18:00.021Z,98
2018-06-16T07:19:02.030Z,98
2018-06-16T07:20:04.037Z,98
2018-06-16T07:21:06.049Z,98
2018-06-16T07:22:08.056Z,98
2018-06-16T07:23:10.064Z,98
2018-06-16T07:24:12.453Z,98
2018-06-16T07:25:14.466Z,99
2018-06-16T07:26:16.482Z,100
2018-06-16T07:27:18.868Z,101
2018-06-16T07:28:21.153Z,102
2018-06-16T07:29:23.959Z,103
2018-06-16T07:30:25.919Z,104
2018-06-16T07:31:27.924Z,103
2018-06-16T07:32:29.944Z,105
2018-06-16T07:33:31.952Z,106
2018-06-16T07:34:34.249Z,107
2018-06-16T07:35:36.253Z,108
2018-06-16T07:36:38.262Z,110
2018-06-16T07:37:40.264Z,112
2018-06-16T07:38:42.274Z,113
2018-06-16T07:39:44.268Z,114
2018-06-16T07:40:46.562Z,115
2018-06-16T07:41:48.566Z,116
2018-06-16T07:42:50.573Z,117
2018-06-16T07:43:52.854Z,117
2018-06-16T07:44:54.863Z,116
2018-06-16T07:45:56.873Z,116
2018-06-16T07:46:58.888Z,116
2018-06-16T07:48:01.173Z,117
2018-06-16T07:49:03.185Z,117
2018-06-16T07:50:05.193Z,117
2018-06-16T07:51:07.477Z,118
2018-06-16T07:52:09.760Z,118
2018-06-16T07:53:12.445Z,118
2018-06-16T07:54:14.457Z,119
2018-06-16T07:55:16.464Z,119
2018-06-16T07:56:18.479Z,119
2018-06-16T07:57:20.490Z,118
2018-06-16T07:58:22.790Z,116
2018-06-16T07:59:24.794Z,116
2018-06-16T08:00:26.806Z,115
2018-06-16T08:01:28.813Z,112
2018-06-16T08:02:31.199Z,110
2018-06-16T08:03:33.206Z,111
2018-06-16T08:04:35.499Z,112
2018-06-16T08:05:37.886Z,114
2018-06-16T08:06:40.235Z,116
2018-06-16T08:07:42.232Z,118
2018-06-16T08:08:44.238Z,121
2018-06-16T08:09:46.256Z,124
2018-06-16T08:10:48.258Z,127
2018-06-16T08:11:50.263Z,129
2018-06-16T08:12:52.328Z,129
2018-06-16T08:13:54.666Z,128
2018-06-16T08:14:56.681Z,128
2018-06-16T08:15:58.690Z,126
2018-06-16T08:17:00.691Z,126
2018-06-16T08:18:03.107Z,124
2018-06-16T08:19:05.306Z,123
2018-06-16T08:20:07.617Z,123
2018-06-16T08:21:09.620Z,125
2018-06-16T08:22:11.630Z,127
2018-06-16T08:23:14.022Z,128
2018-06-16T08:24:16.032Z,129
2018-06-16T08:25:18.043Z,130
2018-06-16T08:26:21.018Z,130
2018-06-16T08:27:23.300Z,131
2018-06-16T08:28:25.315Z,132
2018-06-16T08:29:27.318Z,133
2018-06-16T08:30:29.341Z,135
2018-06-16T08:31:31.933Z,139
2018-06-16T08:32:33.947Z,144
2018-06-16T08:33:35.967Z,142
2018-06-16T08:34:38.356Z,146
2018-06-16T08:35:40.746Z,146
2018-06-16T08:36:42.753Z,147
2018-06-16T08:37:44.748Z,144
2018-06-16T08:38:46.755Z,148
2018-06-16T08:39:48.764Z,157
2018-06-16T08:40:51.054Z,164
2018-06-16T08:41:53.068Z,171
2018-06-16T08:42:55.069Z,172
2018-06-16T08:43:57.376Z,205
2018-06-16T08:44:59.385Z,255
2018-06-16T08:46:01.394Z,297
2018-06-16T08:47:03.402Z,257
2018-06-16T08:48:05.406Z,240
2018-06-16T08:49:07.409Z,196
2018-06-16T08:50:09.418Z,221
2018-06-16T08:51:11.427Z,228
2018-06-16T08:52:13.431Z,227
2018-06-16T08:53:15.723Z,209
2018-06-16T08:54:17.737Z,196
2018-06-16T08:55:19.816Z,214
2018-06-16T08:56:21.755Z,229
2018-06-16T08:57:23.763Z,219
2018-06-16T08:58:26.057Z,208
2018-06-16T08:59:28.443Z,195
2018-06-16T09:00:30.732Z,217
2018-06-16T09:01:33.136Z,222
2018-06-16T09:02:35.150Z,204
2018-06-16T09:03:37.161Z,211
2018-06-16T09:04:39.178Z,173
2018-06-16T09:05:41.187Z,172
2018-06-16T09:06:43.193Z,214
2018-06-16T09:07:45.201Z,235
2018-06-16T09:08:47.503Z,274
2018-06-16T09:09:49.512Z,285
2018-06-16T09:10:51.526Z,271
2018-06-16T09:11:54.596Z,208
2018-06-16T09:12:56.610Z,267
2018-06-16T09:13:58.629Z,233
2018-06-16T09:15:00.638Z,234
2018-06-16T09:16:02.644Z,246
2018-06-16T09:17:04.659Z,154
2018-06-16T09:18:06.967Z,140
2018-06-16T09:19:09.266Z,151
2018-06-16T09:20:11.280Z,192
2018-06-16T09:21:13.290Z,241
2018-06-16T09:22:15.303Z,258
2018-06-16T09:23:17.307Z,269
2018-06-16T09:24:19.320Z,248
2018-06-16T09:25:21.332Z,221
2018-06-16T09:26:23.349Z,216
2018-06-16T09:27:25.354Z,261
2018-06-16T09:28:27.365Z,283
2018-06-16T09:29:29.381Z,264
2018-06-16T09:30:31.682Z,270
2018-06-16T09:31:33.689Z,141
2018-06-16T09:32:35.971Z,139
2018-06-16T09:33:37.984Z,259
2018-06-16T09:34:39.993Z,259
2018-06-16T09:35:42.003Z,143
2018-06-16T09:36:44.398Z,123
2018-06-16T09:37:46.404Z,138
2018-06-16T09:38:48.418Z,220
2018-06-16T09:39:50.416Z,249
2018-06-16T09:40:52.709Z,308
2018-06-16T09:41:54.734Z,299
2018-06-16T09:42:56.732Z,275
2018-06-16T09:43:58.740Z,183
2018-06-16T09:45:00.778Z,201
2018-06-16T09:46:02.764Z,219
2018-06-16T09:47:04.778Z,226
2018-06-16T09:48:06.812Z,272
2018-06-16T09:49:09.095Z,291
2018-06-16T09:50:11.510Z,292
2018-06-16T09:51:13.506Z,298
2018-06-16T09:52:15.525Z,319
2018-06-16T09:53:17.544Z,352
2018-06-16T09:54:19.564Z,342
2018-06-16T09:55:21.867Z,327
2018-06-16T09:56:23.875Z,314
2018-06-16T09:57:25.893Z,194
2018-06-16T09:58:28.281Z,290
2018-06-16T09:59:30.293Z,297
2018-06-16T10:00:32.308Z,183
2018-06-16T10:01:34.601Z,269
2018-06-16T10:02:36.614Z,181
2018-06-16T10:03:38.625Z,175
2018-06-16T10:04:40.635Z,186
2018-06-16T10:05:43.223Z,161
2018-06-16T10:06:45.235Z,146
2018-06-16T10:07:47.249Z,183
2018-06-16T10:08:49.261Z,136
2018-06-16T10:09:51.277Z,128
2018-06-16T10:10:53.304Z,118
2018-06-16T10:11:55.311Z,118
2018-06-16T10:12:57.716Z,122
2018-06-16T10:13:59.929Z,149
2018-06-16T10:15:01.935Z,122
2018-06-16T10:16:04.715Z,131
2018-06-16T10:17:06.646Z,148
2018-06-16T10:18:08.705Z,238
2018-06-16T10:19:11.015Z,249
2018-06-16T10:20:13.022Z,263
2018-06-16T10:21:15.396Z,242
2018-06-16T10:22:17.353Z,228
2018-06-16T10:23:19.361Z,228
2018-06-16T10:24:21.385Z,210
2018-06-16T10:25:23.398Z,223
2018-06-16T10:26:25.414Z,214
2018-06-16T10:27:27.430Z,199
2018-06-16T10:28:29.450Z,147
2018-06-16T10:29:31.470Z,135
2018-06-16T10:30:33.476Z,131
2018-06-16T10:31:35.485Z,131
2018-06-16T10:32:37.506Z,146
2018-06-16T10:33:39.515Z,153
2018-06-16T10:34:41.530Z,169
2018-06-16T10:35:44.208Z,192
2018-06-16T10:36:46.607Z,151
2018-06-16T10:37:48.620Z,152
2018-06-16T10:38:50.627Z,194
2018-06-16T10:39:52.937Z,206
2018-06-16T10:40:54.952Z,216
2018-06-16T10:41:57.260Z,157
2018-06-16T10:42:59.275Z,154
2018-06-16T10:44:01.283Z,176
2018-06-16T10:45:03.297Z,281
2018-06-16T10:46:05.316Z,213
2018-06-16T10:47:07.322Z,290
2018-06-16T10:48:09.341Z,313
2018-06-16T10:49:11.357Z,315
2018-06-16T10:50:13.656Z,297
2018-06-16T10:51:15.673Z,281
2018-06-16T10:52:17.687Z,264
2018-06-16T10:53:19.713Z,280
2018-06-16T10:54:21.726Z,259
2018-06-16T10:55:23.730Z,285
2018-06-16T10:56:25.746Z,297
2018-06-16T10:57:27.762Z,211
2018-06-16T10:58:29.776Z,175
2018-06-16T10:59:31.796Z,184
2018-06-16T11:00:33.805Z,354
2018-06-16T11:01:35.820Z,382
2018-06-16T11:02:38.107Z,387
2018-06-16T11:03:40.406Z,393
2018-06-16T11:04:42.430Z,420
2018-06-16T11:05:44.438Z,388
2018-06-16T11:06:46.462Z,424
2018-06-16T11:07:48.475Z,409
2018-06-16T11:08:50.491Z,199
2018-06-16T11:09:52.509Z,289
2018-06-16T11:10:54.520Z,179
2018-06-16T11:11:56.542Z,352
2018-06-16T11:12:58.553Z,358
2018-06-16T11:14:00.559Z,157
2018-06-16T11:15:02.584Z,140
2018-06-16T11:16:04.601Z,130
2018-06-16T11:17:06.971Z,135
2018-06-16T11:18:08.991Z,161
2018-06-16T11:19:10.995Z,350
2018-06-16T11:20:13.008Z,366
2018-06-16T11:21:15.027Z,372
2018-06-16T11:22:17.039Z,372
2018-06-16T11:23:19.049Z,377
2018-06-16T11:24:21.064Z,372
2018-06-16T11:25:23.082Z,253
2018-06-16T11:26:25.106Z,168
2018-06-16T11:27:27.498Z,157
2018-06-16T11:28:29.523Z,159
2018-06-16T11:29:31.541Z,169
2018-06-16T11:30:33.550Z,326
2018-06-16T11:31:35.567Z,366
2018-06-16T11:32:37.858Z,369
2018-06-16T11:33:39.874Z,371
2018-06-16T11:34:42.502Z,344
2018-06-16T11:35:44.776Z,242
2018-06-16T11:36:47.083Z,367
2018-06-16T11:37:49.383Z,365
2018-06-16T11:38:51.386Z,363
2018-06-16T11:39:53.795Z,356
2018-06-16T11:40:55.911Z,364
2018-06-16T11:41:57.824Z,360
2018-06-16T11:42:59.841Z,343
2018-06-16T11:44:02.153Z,231
2018-06-16T11:45:04.176Z,279
2018-06-16T11:46:06.176Z,361
2018-06-16T11:47:08.201Z,191
2018-06-16T11:48:10.215Z,247
2018-06-16T11:49:12.228Z,327
2018-06-16T11:50:14.240Z,317
2018-06-16T11:51:16.253Z,308
2018-06-16T11:52:18.263Z,306
2018-06-16T11:53:20.283Z,347
2018-06-16T11:54:22.293Z,330
2018-06-16T11:55:24.314Z,339
2018-06-16T11:56:26.331Z,205
2018-06-16T11:57:28.350Z,196
2018-06-16T11:58:30.746Z,220
2018-06-16T11:59:32.771Z,191
2018-06-16T12:00:34.790Z,189
2018-06-16T12:01:36.797Z,190
2018-06-16T12:02:38.815Z,312
2018-06-16T12:03:40.827Z,287
2018-06-16T12:04:42.845Z,294
2018-06-16T12:05:45.160Z,242
2018-06-16T12:06:47.958Z,241
2018-06-16T12:07:49.975Z,189
2018-06-16T12:08:51.983Z,180
2018-06-16T12:09:54.009Z,158
2018-06-16T12:10:56.030Z,143
2018-06-16T12:11:58.048Z,136
2018-06-16T12:13:00.062Z,133
2018-06-16T12:14:02.082Z,130
2018-06-16T12:15:04.684Z,125
2018-06-16T12:16:06.978Z,122
2018-06-16T12:17:08.986Z,120
2018-06-16T12:18:11.008Z,121
2018-06-16T12:19:13.035Z,122
2018-06-16T12:20:15.043Z,126
2018-06-16T12:21:17.340Z,132
2018-06-16T12:22:19.354Z,138
2018-06-16T12:23:21.375Z,164
2018-06-16T12:24:23.389Z,154
2018-06-16T12:25:25.408Z,160
2018-06-16T12:26:27.708Z,163
2018-06-16T12:27:29.712Z,173
2018-06-16T12:28:31.717Z,182
2018-06-16T12:29:33.736Z,195
2018-06-16T12:30:36.032Z,223
2018-06-16T12:31:38.045Z,226
2018-06-16T12:32:40.344Z,225
2018-06-16T12:33:42.356Z,220
2018-06-16T12:34:44.670Z,207
2018-06-16T12:35:46.678Z,207
2018-06-16T12:36:48.692Z,207
2018-06-16T12:37:50.709Z,186
2018-06-16T12:38:52.724Z,186
2018-06-16T12:39:54.742Z,208
2018-06-16T12:40:56.758Z,214
2018-06-16T12:41:59.036Z,223
2018-06-16T12:43:01.442Z,221
2018-06-16T12:44:03.458Z,223
2018-06-16T12:45:05.480Z,219
2018-06-16T12:46:07.502Z,209
2018-06-16T12:47:09.521Z,209
2018-06-16T12:48:12.157Z,224
2018-06-16T12:49:14.159Z,243
2018-06-16T12:50:16.454Z,186
2018-06-16T12:51:18.476Z,175
2018-06-16T12:52:20.488Z,172
2018-06-16T12:53:22.513Z,209
2018-06-16T12:54:24.524Z,178
2018-06-16T12:55:26.819Z,167
2018-06-16T12:56:29.129Z,157
2018-06-16T12:57:31.138Z,145
2018-06-16T12:58:33.436Z,133
2018-06-16T12:59:35.452Z,123
2018-06-16T13:00:37.459Z,114
2018-06-16T13:01:39.493Z,114
2018-06-16T13:02:42.080Z,118
2018-06-16T13:03:44.100Z,128
2018-06-16T13:04:46.111Z,159
2018-06-16T13:05:48.130Z,161
2018-06-16T13:06:50.154Z,157
2018-06-16T13:07:52.731Z,153
2018-06-16T13:08:54.745Z,153
2018-06-16T13:09:56.771Z,158
2018-06-16T13:10:58.781Z,174
2018-06-16T13:12:01.181Z,177
2018-06-16T13:13:03.486Z,184
2018-06-16T13:14:05.497Z,186
2018-06-16T13:15:07.524Z,168
2018-06-16T13:16:09.532Z,189
2018-06-16T13:17:11.544Z,188
2018-06-16T13:18:13.576Z,187
2018-06-16T13:19:15.949Z,181
2018-06-16T13:20:17.968Z,178
2018-06-16T13:21:19.974Z,182
2018-06-16T13:22:21.999Z,174
2018-06-16T13:23:24.008Z,199
2018-06-16T13:24:26.292Z,208
2018-06-16T13:25:28.311Z,207
2018-06-16T13:26:30.709Z,201
2018-06-16T13:27:32.728Z,199
2018-06-16T13:28:34.735Z,196
2018-06-16T13:29:36.743Z,196
2018-06-16T13:30:38.763Z,188
2018-06-16T13:31:40.770Z,190
2018-06-16T13:32:43.167Z,196
2018-06-16T13:33:45.184Z,203
2018-06-16T13:34:47.194Z,218
2018-06-16T13:35:49.484Z,218
2018-06-16T13:36:51.498Z,204
2018-06-16T13:37:53.516Z,202
2018-06-16T13:38:55.529Z,191
2018-06-16T13:39:57.539Z,162
2018-06-16T13:40:59.561Z,180
2018-06-16T13:42:01.575Z,150
2018-06-16T13:43:03.627Z,156
2018-06-16T13:44:05.601Z,202
2018-06-16T13:45:07.618Z,220
2018-06-16T13:46:09.628Z,215
2018-06-16T13:47:11.636Z,156
2018-06-16T13:48:13.648Z,153
2018-06-16T13:49:15.961Z,161
2018-06-16T13:50:17.992Z,166
2018-06-16T13:51:20.323Z,180
2018-06-16T13:52:22.640Z,173
2018-06-16T13:53:24.652Z,166
2018-06-16T13:54:26.673Z,167
2018-06-16T13:55:28.706Z,160
2018-06-16T13:56:31.133Z,175
2018-06-16T13:57:33.466Z,178
2018-06-16T13:58:35.789Z,176
2018-06-16T13:59:38.244Z,145
2018-06-16T14:00:40.567Z,146
2018-06-16T14:01:42.726Z,167
2018-06-16T14:02:45.133Z,151
2018-06-16T14:03:47.430Z,154
2018-06-16T14:04:49.446Z,187
2018-06-16T14:05:51.476Z,194
2018-06-16T14:06:53.499Z,203
2018-06-16T14:07:55.529Z,210
2018-06-16T14:08:57.557Z,205
2018-06-16T14:09:59.576Z,215
2018-06-16T14:11:01.609Z,209
2018-06-16T14:12:03.909Z,166
2018-06-16T14:13:05.973Z,189
2018-06-16T14:14:08.214Z,164
2018-06-16T14:15:10.256Z,185
2018-06-16T14:16:12.514Z,191
2018-06-16T14:17:14.694Z,191
2018-06-16T14:18:18.377Z,194
2018-06-16T14:19:22.175Z,188
2018-06-16T14:20:24.469Z,199
2018-06-16T14:21:26.610Z,217
2018-06-16T14:22:28.637Z,226
2018-06-16T14:23:32.139Z,240
2018-06-16T14:24:36.827Z,243
2018-06-16T14:25:42.248Z,211
2018-06-16T14:26:46.551Z,238
2018-06-16T14:27:49.858Z,227
2018-06-16T14:28:55.822Z,216
2018-06-16T14:30:03.762Z,161
2018-06-16T14:31:09.653Z,147
2018-06-16T14:32:13.129Z,146
2018-06-16T14:33:16.049Z,155
2018-06-16T14:34:18.630Z,248
2018-06-16T14:35:21.505Z,253
2018-06-16T14:36:26.228Z,261
2018-06-16T14:37:30.452Z,232
2018-06-16T14:38:34.758Z,215